GCFV

Fuerteventura Airport

Fuerteventura Island, Spain
METAR GCFV 230730Z 26002KT 9999 SCT025 13/10 Q1005
Observed Flight Rules
Feb-23 @ 07:30 UTC (38 minutes ago) Visual Flight Rules
Wind Visibility Clouds
260° at 2 knots 10,000+ meters
  • Scattered at 2,500' AGL
Temperatures Readings
Current 13°C / 55°F
Dewpoint 10°C / 50°F
Humidity 82%
Altimeter 29.68" Hg
Pressure 1005 hPa
Elevation 23
METAR GCFV 230730Z 26002KT 9999 SCT025 13/10 Q1005
Observed Flight Rules
Feb-23 @ 07:30 UTC
(38 minutes ago)
VFR
Wind Visibility
260° at 2 knots 10,000+ meters
Clouds
  • Scattered at 2,500' AGL
Temperature Dewpoint
13°C / 55°F 10°C / 50°F
Humidity Altimeter Pressure
82% 29.68" Hg 1005 hPa